sensor_id;sensor_type;location;lat;lon;timestamp;temperature;humidity
80958;DHT22;70419;42.700;23.316;2023-09-19T00:01:40;17.80;57.50
80958;DHT22;70419;42.700;23.316;2023-09-19T00:04:07;18.00;57.30
80958;DHT22;70419;42.700;23.316;2023-09-19T00:06:38;17.90;57.60
80958;DHT22;70419;42.700;23.316;2023-09-19T00:09:04;17.80;57.60
80958;DHT22;70419;42.700;23.316;2023-09-19T00:11:30;17.80;57.70
80958;DHT22;70419;42.700;23.316;2023-09-19T00:13:57;17.70;58.10
80958;DHT22;70419;42.700;23.316;2023-09-19T00:16:25;17.70;58.20
80958;DHT22;70419;42.700;23.316;2023-09-19T00:18:51;17.70;58.40
80958;DHT22;70419;42.700;23.316;2023-09-19T00:21:18;17.70;58.30
80958;DHT22;70419;42.700;23.316;2023-09-19T00:23:45;17.70;58.40
80958;DHT22;70419;42.700;23.316;2023-09-19T00:26:10;17.70;58.60
80958;DHT22;70419;42.700;23.316;2023-09-19T00:28:36;17.60;58.60
80958;DHT22;70419;42.700;23.316;2023-09-19T00:31:02;17.70;58.70
80958;DHT22;70419;42.700;23.316;2023-09-19T00:33:29;17.70;58.80
80958;DHT22;70419;42.700;23.316;2023-09-19T00:35:56;17.70;58.70
80958;DHT22;70419;42.700;23.316;2023-09-19T00:38:23;17.70;58.70
80958;DHT22;70419;42.700;23.316;2023-09-19T00:40:53;17.70;58.80
80958;DHT22;70419;42.700;23.316;2023-09-19T00:43:19;17.60;58.70
80958;DHT22;70419;42.700;23.316;2023-09-19T00:45:47;17.60;59.20
80958;DHT22;70419;42.700;23.316;2023-09-19T00:48:17;17.60;59.10
80958;DHT22;70419;42.700;23.316;2023-09-19T00:50:45;17.60;58.90
80958;DHT22;70419;42.700;23.316;2023-09-19T00:53:15;17.60;59.50
80958;DHT22;70419;42.700;23.316;2023-09-19T00:55:45;17.50;59.60
80958;DHT22;70419;42.700;23.316;2023-09-19T00:58:11;17.60;59.10
80958;DHT22;70419;42.700;23.316;2023-09-19T01:00:37;17.60;59.40
80958;DHT22;70419;42.700;23.316;2023-09-19T01:03:04;17.60;59.30
80958;DHT22;70419;42.700;23.316;2023-09-19T01:05:33;17.60;59.30
80958;DHT22;70419;42.700;23.316;2023-09-19T01:07:58;17.60;59.40
80958;DHT22;70419;42.700;23.316;2023-09-19T01:10:25;17.50;59.60
80958;DHT22;70419;42.700;23.316;2023-09-19T01:32:03;17.10;61.10
80958;DHT22;70419;42.700;23.316;2023-09-19T01:34:53;17.20;61.00
80958;DHT22;70419;42.700;23.316;2023-09-19T01:37:21;17.10;61.70
80958;DHT22;70419;42.700;23.316;2023-09-19T01:39:59;17.00;61.70
80958;DHT22;70419;42.700;23.316;2023-09-19T01:45:57;17.10;62.10
80958;DHT22;70419;42.700;23.316;2023-09-19T01:51:02;17.00;61.70
80958;DHT22;70419;42.700;23.316;2023-09-19T01:53:33;16.90;62.40
80958;DHT22;70419;42.700;23.316;2023-09-19T01:56:02;17.00;62.20
80958;DHT22;70419;42.700;23.316;2023-09-19T01:58:37;16.90;62.40
80958;DHT22;70419;42.700;23.316;2023-09-19T02:01:06;17.00;62.10
80958;DHT22;70419;42.700;23.316;2023-09-19T02:03:34;17.00;62.50
80958;DHT22;70419;42.700;23.316;2023-09-19T02:06:00;16.90;62.90
80958;DHT22;70419;42.700;23.316;2023-09-19T02:08:26;16.80;63.00
80958;DHT22;70419;42.700;23.316;2023-09-19T02:10:52;16.90;62.80
80958;DHT22;70419;42.700;23.316;2023-09-19T02:13:22;16.90;62.70
80958;DHT22;70419;42.700;23.316;2023-09-19T02:15:53;16.80;62.80
80958;DHT22;70419;42.700;23.316;2023-09-19T02:18:19;16.80;63.20
80958;DHT22;70419;42.700;23.316;2023-09-19T02:20:45;16.90;63.00
80958;DHT22;70419;42.700;23.316;2023-09-19T02:23:12;16.90;62.90
80958;DHT22;70419;42.700;23.316;2023-09-19T02:25:38;16.80;63.10
80958;DHT22;70419;42.700;23.316;2023-09-19T02:28:06;16.80;63.20
80958;DHT22;70419;42.700;23.316;2023-09-19T02:30:32;16.80;63.20
80958;DHT22;70419;42.700;23.316;2023-09-19T02:32:58;16.80;62.80
80958;DHT22;70419;42.700;23.316;2023-09-19T02:35:27;16.80;62.90
80958;DHT22;70419;42.700;23.316;2023-09-19T02:37:53;16.80;62.90
80958;DHT22;70419;42.700;23.316;2023-09-19T02:40:19;16.80;63.00
80958;DHT22;70419;42.700;23.316;2023-09-19T02:42:48;16.80;63.10
80958;DHT22;70419;42.700;23.316;2023-09-19T02:45:16;16.70;63.30
80958;DHT22;70419;42.700;23.316;2023-09-19T02:47:44;16.70;63.40
80958;DHT22;70419;42.700;23.316;2023-09-19T02:50:10;16.70;63.60
80958;DHT22;70419;42.700;23.316;2023-09-19T02:52:37;16.70;63.50
80958;DHT22;70419;42.700;23.316;2023-09-19T02:55:03;16.60;63.50
80958;DHT22;70419;42.700;23.316;2023-09-19T02:57:31;16.60;63.60
80958;DHT22;70419;42.700;23.316;2023-09-19T02:59:58;16.60;63.80
80958;DHT22;70419;42.700;23.316;2023-09-19T03:02:26;16.60;64.00
80958;DHT22;70419;42.700;23.316;2023-09-19T03:04:53;16.70;63.70
80958;DHT22;70419;42.700;23.316;2023-09-19T03:07:19;16.70;63.30
80958;DHT22;70419;42.700;23.316;2023-09-19T03:09:45;16.70;63.30
80958;DHT22;70419;42.700;23.316;2023-09-19T03:12:11;16.70;63.40
80958;DHT22;70419;42.700;23.316;2023-09-19T03:14:41;16.70;63.50
80958;DHT22;70419;42.700;23.316;2023-09-19T03:17:07;16.60;63.50
80958;DHT22;70419;42.700;23.316;2023-09-19T03:19:34;16.60;63.60
80958;DHT22;70419;42.700;23.316;2023-09-19T03:22:00;16.60;63.70
80958;DHT22;70419;42.700;23.316;2023-09-19T03:24:27;16.60;63.80
80958;DHT22;70419;42.700;23.316;2023-09-19T03:26:54;16.60;63.70
80958;DHT22;70419;42.700;23.316;2023-09-19T03:29:20;16.60;63.60
80958;DHT22;70419;42.700;23.316;2023-09-19T03:31:46;16.60;63.80
80958;DHT22;70419;42.700;23.316;2023-09-19T03:34:12;16.50;64.10
80958;DHT22;70419;42.700;23.316;2023-09-19T03:36:37;16.50;64.40
80958;DHT22;70419;42.700;23.316;2023-09-19T03:39:03;16.40;64.40
80958;DHT22;70419;42.700;23.316;2023-09-19T03:41:33;16.40;64.60
80958;DHT22;70419;42.700;23.316;2023-09-19T03:44:02;16.30;65.00
80958;DHT22;70419;42.700;23.316;2023-09-19T03:46:28;16.20;65.20
80958;DHT22;70419;42.700;23.316;2023-09-19T03:48:54;16.20;65.80
80958;DHT22;70419;42.700;23.316;2023-09-19T03:51:20;16.10;65.50
80958;DHT22;70419;42.700;23.316;2023-09-19T03:53:47;16.20;65.60
80958;DHT22;70419;42.700;23.316;2023-09-19T03:56:14;16.20;65.40
80958;DHT22;70419;42.700;23.316;2023-09-19T03:58:40;16.20;65.50
80958;DHT22;70419;42.700;23.316;2023-09-19T04:01:06;16.30;65.20
80958;DHT22;70419;42.700;23.316;2023-09-19T04:03:35;16.20;65.10
80958;DHT22;70419;42.700;23.316;2023-09-19T04:06:13;16.20;65.20
80958;DHT22;70419;42.700;23.316;2023-09-19T04:08:39;16.20;65.10
80958;DHT22;70419;42.700;23.316;2023-09-19T04:11:04;16.20;65.20
80958;DHT22;70419;42.700;23.316;2023-09-19T04:13:30;16.30;65.10
80958;DHT22;70419;42.700;23.316;2023-09-19T04:15:56;16.30;64.90
80958;DHT22;70419;42.700;23.316;2023-09-19T04:18:22;16.40;64.70
80958;DHT22;70419;42.700;23.316;2023-09-19T04:20:52;16.30;65.20
80958;DHT22;70419;42.700;23.316;2023-09-19T04:23:19;16.20;65.50
80958;DHT22;70419;42.700;23.316;2023-09-19T04:25:48;16.10;66.20
80958;DHT22;70419;42.700;23.316;2023-09-19T04:28:14;16.00;66.60
80958;DHT22;70419;42.700;23.316;2023-09-19T04:30:42;15.90;66.90
80958;DHT22;70419;42.700;23.316;2023-09-19T04:33:08;15.90;67.10
80958;DHT22;70419;42.700;23.316;2023-09-19T04:35:34;16.10;66.90
80958;DHT22;70419;42.700;23.316;2023-09-19T04:38:00;16.30;66.00
80958;DHT22;70419;42.700;23.316;2023-09-19T04:40:28;16.10;66.00
80958;DHT22;70419;42.700;23.316;2023-09-19T04:42:58;15.90;66.60
80958;DHT22;70419;42.700;23.316;2023-09-19T04:45:27;16.00;66.90
80958;DHT22;70419;42.700;23.316;2023-09-19T04:47:53;16.10;66.30
80958;DHT22;70419;42.700;23.316;2023-09-19T04:50:20;16.40;65.00
80958;DHT22;70419;42.700;23.316;2023-09-19T04:52:55;16.50;64.90
80958;DHT22;70419;42.700;23.316;2023-09-19T04:55:21;16.50;64.80
80958;DHT22;70419;42.700;23.316;2023-09-19T04:57:48;16.60;64.10
80958;DHT22;70419;42.700;23.316;2023-09-19T05:00:16;16.80;63.80
80958;DHT22;70419;42.700;23.316;2023-09-19T05:02:44;17.00;62.90
80958;DHT22;70419;42.700;23.316;2023-09-19T05:05:11;17.30;62.20
80958;DHT22;70419;42.700;23.316;2023-09-19T05:07:41;17.50;60.90
80958;DHT22;70419;42.700;23.316;2023-09-19T05:10:07;17.80;59.80
80958;DHT22;70419;42.700;23.316;2023-09-19T05:12:44;18.00;59.60
80958;DHT22;70419;42.700;23.316;2023-09-19T05:15:13;18.10;58.30
80958;DHT22;70419;42.700;23.316;2023-09-19T05:17:40;18.40;57.50
80958;DHT22;70419;42.700;23.316;2023-09-19T05:20:07;18.60;56.90
80958;DHT22;70419;42.700;23.316;2023-09-19T05:22:44;18.90;56.60
80958;DHT22;70419;42.700;23.316;2023-09-19T05:25:13;19.10;55.70
80958;DHT22;70419;42.700;23.316;2023-09-19T05:27:44;19.30;55.10
80958;DHT22;70419;42.700;23.316;2023-09-19T05:30:11;19.50;54.30
80958;DHT22;70419;42.700;23.316;2023-09-19T05:32:39;19.60;53.80
80958;DHT22;70419;42.700;23.316;2023-09-19T05:35:07;19.70;53.40
80958;DHT22;70419;42.700;23.316;2023-09-19T05:37:36;20.00;52.90
80958;DHT22;70419;42.700;23.316;2023-09-19T05:40:02;20.20;52.20
80958;DHT22;70419;42.700;23.316;2023-09-19T05:42:32;20.40;51.20
80958;DHT22;70419;42.700;23.316;2023-09-19T05:44:58;20.60;50.80
80958;DHT22;70419;42.700;23.316;2023-09-19T05:47:24;20.70;50.30
80958;DHT22;70419;42.700;23.316;2023-09-19T05:49:50;20.80;49.90
80958;DHT22;70419;42.700;23.316;2023-09-19T05:52:18;20.80;49.30
80958;DHT22;70419;42.700;23.316;2023-09-19T05:54:45;21.10;49.20
80958;DHT22;70419;42.700;23.316;2023-09-19T05:57:11;21.10;48.50
80958;DHT22;70419;42.700;23.316;2023-09-19T05:59:37;21.40;47.90
80958;DHT22;70419;42.700;23.316;2023-09-19T06:02:07;21.80;47.00
80958;DHT22;70419;42.700;23.316;2023-09-19T06:04:38;22.30;45.70
80958;DHT22;70419;42.700;23.316;2023-09-19T06:07:07;22.90;44.40
80958;DHT22;70419;42.700;23.316;2023-09-19T06:09:36;23.50;42.90
80958;DHT22;70419;42.700;23.316;2023-09-19T06:12:04;24.20;41.20
80958;DHT22;70419;42.700;23.316;2023-09-19T06:14:31;25.00;39.20
80958;DHT22;70419;42.700;23.316;2023-09-19T06:16:57;25.60;38.10
80958;DHT22;70419;42.700;23.316;2023-09-19T06:19:24;26.20;36.90
80958;DHT22;70419;42.700;23.316;2023-09-19T06:21:52;27.00;35.40
80958;DHT22;70419;42.700;23.316;2023-09-19T06:24:19;27.20;34.40
80958;DHT22;70419;42.700;23.316;2023-09-19T06:26:46;27.50;34.30
80958;DHT22;70419;42.700;23.316;2023-09-19T06:29:13;28.00;33.40
80958;DHT22;70419;42.700;23.316;2023-09-19T06:31:41;28.40;32.70
80958;DHT22;70419;42.700;23.316;2023-09-19T06:34:08;28.80;31.80
80958;DHT22;70419;42.700;23.316;2023-09-19T06:36:34;29.00;31.10
80958;DHT22;70419;42.700;23.316;2023-09-19T06:38:59;29.40;30.80
80958;DHT22;70419;42.700;23.316;2023-09-19T06:41:29;30.00;30.00
80958;DHT22;70419;42.700;23.316;2023-09-19T06:43:55;30.60;29.30
80958;DHT22;70419;42.700;23.316;2023-09-19T06:46:21;31.20;28.20
80958;DHT22;70419;42.700;23.316;2023-09-19T06:48:47;31.30;28.00
80958;DHT22;70419;42.700;23.316;2023-09-19T06:51:14;31.00;28.10
80958;DHT22;70419;42.700;23.316;2023-09-19T06:53:41;30.60;28.50
80958;DHT22;70419;42.700;23.316;2023-09-19T06:56:07;30.30;28.80
80958;DHT22;70419;42.700;23.316;2023-09-19T06:58:33;30.10;29.40
80958;DHT22;70419;42.700;23.316;2023-09-19T07:00:58;30.00;29.60
80958;DHT22;70419;42.700;23.316;2023-09-19T07:03:24;30.00;29.30
80958;DHT22;70419;42.700;23.316;2023-09-19T07:05:55;29.80;29.50
80958;DHT22;70419;42.700;23.316;2023-09-19T07:08:21;29.80;29.60
80958;DHT22;70419;42.700;23.316;2023-09-19T07:10:47;29.70;29.70
80958;DHT22;70419;42.700;23.316;2023-09-19T07:13:14;29.60;29.60
80958;DHT22;70419;42.700;23.316;2023-09-19T07:15:42;29.40;29.60
80958;DHT22;70419;42.700;23.316;2023-09-19T07:18:16;29.30;29.60
80958;DHT22;70419;42.700;23.316;2023-09-19T07:20:43;29.30;30.00
80958;DHT22;70419;42.700;23.316;2023-09-19T07:23:17;29.30;30.00
80958;DHT22;70419;42.700;23.316;2023-09-19T07:25:44;29.10;30.00
80958;DHT22;70419;42.700;23.316;2023-09-19T07:28:12;29.10;30.20
80958;DHT22;70419;42.700;23.316;2023-09-19T07:30:38;29.10;29.90
80958;DHT22;70419;42.700;23.316;2023-09-19T07:33:05;28.90;30.00
80958;DHT22;70419;42.700;23.316;2023-09-19T07:35:31;28.90;30.50
80958;DHT22;70419;42.700;23.316;2023-09-19T07:37:57;29.00;30.60
80958;DHT22;70419;42.700;23.316;2023-09-19T07:40:24;29.00;30.00
80958;DHT22;70419;42.700;23.316;2023-09-19T07:42:52;29.00;30.10
80958;DHT22;70419;42.700;23.316;2023-09-19T07:45:19;28.90;29.90
80958;DHT22;70419;42.700;23.316;2023-09-19T07:50:13;28.90;30.10
80958;DHT22;70419;42.700;23.316;2023-09-19T07:52:39;29.10;30.20
80958;DHT22;70419;42.700;23.316;2023-09-19T07:55:07;29.30;29.90
80958;DHT22;70419;42.700;23.316;2023-09-19T07:57:37;29.60;29.40
80958;DHT22;70419;42.700;23.316;2023-09-19T08:00:03;30.10;29.40
80958;DHT22;70419;42.700;23.316;2023-09-19T08:02:39;30.60;28.70
80958;DHT22;70419;42.700;23.316;2023-09-19T08:05:06;30.80;28.30
80958;DHT22;70419;42.700;23.316;2023-09-19T08:07:32;31.20;28.60
80958;DHT22;70419;42.700;23.316;2023-09-19T08:09:58;31.60;27.50
80958;DHT22;70419;42.700;23.316;2023-09-19T08:12:24;32.00;26.80
80958;DHT22;70419;42.700;23.316;2023-09-19T08:14:50;32.10;26.50
80958;DHT22;70419;42.700;23.316;2023-09-19T08:17:20;32.50;26.30
80958;DHT22;70419;42.700;23.316;2023-09-19T08:19:48;32.80;25.90
80958;DHT22;70419;42.700;23.316;2023-09-19T08:22:21;33.10;25.70
80958;DHT22;70419;42.700;23.316;2023-09-19T08:24:49;33.40;25.40
80958;DHT22;70419;42.700;23.316;2023-09-19T08:27:15;34.10;24.90
80958;DHT22;70419;42.700;23.316;2023-09-19T08:29:43;34.60;24.30
80958;DHT22;70419;42.700;23.316;2023-09-19T08:32:10;34.80;24.00
80958;DHT22;70419;42.700;23.316;2023-09-19T08:34:36;35.20;23.90
80958;DHT22;70419;42.700;23.316;2023-09-19T08:37:04;35.70;23.50
80958;DHT22;70419;42.700;23.316;2023-09-19T08:39:30;36.00;23.00
80958;DHT22;70419;42.700;23.316;2023-09-19T08:41:59;36.20;22.50
80958;DHT22;70419;42.700;23.316;2023-09-19T08:44:29;36.30;22.50
80958;DHT22;70419;42.700;23.316;2023-09-19T08:47:15;36.70;22.10
80958;DHT22;70419;42.700;23.316;2023-09-19T08:49:55;37.10;21.50
80958;DHT22;70419;42.700;23.316;2023-09-19T08:52:32;37.30;21.50
80958;DHT22;70419;42.700;23.316;2023-09-19T08:55:02;36.80;21.50
80958;DHT22;70419;42.700;23.316;2023-09-19T08:57:36;36.10;22.10
80958;DHT22;70419;42.700;23.316;2023-09-19T09:00:07;35.20;22.70
80958;DHT22;70419;42.700;23.316;2023-09-19T09:02:40;34.30;24.10
80958;DHT22;70419;42.700;23.316;2023-09-19T09:05:08;34.00;24.00
80958;DHT22;70419;42.700;23.316;2023-09-19T09:07:36;33.70;24.10
80958;DHT22;70419;42.700;23.316;2023-09-19T09:10:03;33.20;24.90
80958;DHT22;70419;42.700;23.316;2023-09-19T09:12:30;32.80;25.50
80958;DHT22;70419;42.700;23.316;2023-09-19T09:14:56;32.60;25.70
80958;DHT22;70419;42.700;23.316;2023-09-19T09:17:23;33.40;25.40
80958;DHT22;70419;42.700;23.316;2023-09-19T09:19:52;33.90;24.40
80958;DHT22;70419;42.700;23.316;2023-09-19T09:22:19;34.00;24.20
80958;DHT22;70419;42.700;23.316;2023-09-19T09:24:59;34.30;24.30
80958;DHT22;70419;42.700;23.316;2023-09-19T09:27:29;34.70;24.00
80958;DHT22;70419;42.700;23.316;2023-09-19T09:29:55;34.90;23.30
80958;DHT22;70419;42.700;23.316;2023-09-19T09:35:00;35.90;22.40
80958;DHT22;70419;42.700;23.316;2023-09-19T09:37:27;36.80;21.90
80958;DHT22;70419;42.700;23.316;2023-09-19T09:39:59;37.20;21.40
80958;DHT22;70419;42.700;23.316;2023-09-19T09:42:44;37.30;21.50
80958;DHT22;70419;42.700;23.316;2023-09-19T09:47:49;37.00;21.20
80958;DHT22;70419;42.700;23.316;2023-09-19T09:50:30;37.40;21.10
80958;DHT22;70419;42.700;23.316;2023-09-19T09:53:27;37.60;21.10
80958;DHT22;70419;42.700;23.316;2023-09-19T09:56:06;37.90;21.00
80958;DHT22;70419;42.700;23.316;2023-09-19T10:01:47;37.30;21.10
80958;DHT22;70419;42.700;23.316;2023-09-19T10:04:27;36.60;21.30
80958;DHT22;70419;42.700;23.316;2023-09-19T10:07:24;36.10;22.10
80958;DHT22;70419;42.700;23.316;2023-09-19T10:09:52;35.40;22.90
80958;DHT22;70419;42.700;23.316;2023-09-19T10:12:19;34.90;23.00
80958;DHT22;70419;42.700;23.316;2023-09-19T10:14:49;34.50;23.40
80958;DHT22;70419;42.700;23.316;2023-09-19T10:17:18;34.00;23.80
80958;DHT22;70419;42.700;23.316;2023-09-19T10:19:57;33.70;24.30
80958;DHT22;70419;42.700;23.316;2023-09-19T10:22:27;33.40;24.50
80958;DHT22;70419;42.700;23.316;2023-09-19T10:24:58;33.30;25.10
80958;DHT22;70419;42.700;23.316;2023-09-19T10:27:29;33.20;24.90
80958;DHT22;70419;42.700;23.316;2023-09-19T10:30:05;33.60;25.00
80958;DHT22;70419;42.700;23.316;2023-09-19T10:32:35;34.10;24.00
80958;DHT22;70419;42.700;23.316;2023-09-19T10:35:02;34.30;23.70
80958;DHT22;70419;42.700;23.316;2023-09-19T10:37:32;34.20;23.80
80958;DHT22;70419;42.700;23.316;2023-09-19T10:39:59;33.90;23.90
80958;DHT22;70419;42.700;23.316;2023-09-19T10:42:25;33.50;24.30
80958;DHT22;70419;42.700;23.316;2023-09-19T10:44:58;33.30;24.70
80958;DHT22;70419;42.700;23.316;2023-09-19T10:47:29;33.20;24.80
80958;DHT22;70419;42.700;23.316;2023-09-19T10:49:56;32.90;25.10
80958;DHT22;70419;42.700;23.316;2023-09-19T10:52:25;32.70;25.20
80958;DHT22;70419;42.700;23.316;2023-09-19T10:54:56;32.40;25.90
80958;DHT22;70419;42.700;23.316;2023-09-19T10:57:29;32.20;26.20
80958;DHT22;70419;42.700;23.316;2023-09-19T11:00:04;32.30;26.20
80958;DHT22;70419;42.700;23.316;2023-09-19T11:05:41;32.40;26.00
80958;DHT22;70419;42.700;23.316;2023-09-19T11:08:08;32.40;25.60
80958;DHT22;70419;42.700;23.316;2023-09-19T11:10:50;32.60;26.30
80958;DHT22;70419;42.700;23.316;2023-09-19T11:13:32;32.90;25.40
80958;DHT22;70419;42.700;23.316;2023-09-19T11:16:04;33.10;25.20
80958;DHT22;70419;42.700;23.316;2023-09-19T11:21:38;33.50;25.10
80958;DHT22;70419;42.700;23.316;2023-09-19T11:26:43;32.70;25.60
80958;DHT22;70419;42.700;23.316;2023-09-19T11:29:25;32.60;25.70
80958;DHT22;70419;42.700;23.316;2023-09-19T11:31:52;33.00;25.60
80958;DHT22;70419;42.700;23.316;2023-09-19T11:37:02;33.70;24.90
80958;DHT22;70419;42.700;23.316;2023-09-19T11:39:31;33.90;24.20
80958;DHT22;70419;42.700;23.316;2023-09-19T11:41:58;34.80;23.70
80958;DHT22;70419;42.700;23.316;2023-09-19T11:46:53;37.20;21.60
80958;DHT22;70419;42.700;23.316;2023-09-19T11:49:31;37.60;21.30
80958;DHT22;70419;42.700;23.316;2023-09-19T11:51:59;38.00;21.10
80958;DHT22;70419;42.700;23.316;2023-09-19T11:54:36;38.00;21.00
80958;DHT22;70419;42.700;23.316;2023-09-19T11:57:08;38.00;21.10
80958;DHT22;70419;42.700;23.316;2023-09-19T11:59:38;38.00;21.00
80958;DHT22;70419;42.700;23.316;2023-09-19T12:02:05;39.00;20.40
80958;DHT22;70419;42.700;23.316;2023-09-19T12:04:38;40.80;18.90
80958;DHT22;70419;42.700;23.316;2023-09-19T12:07:08;42.80;17.30
80958;DHT22;70419;42.700;23.316;2023-09-19T12:09:43;44.00;16.90
80958;DHT22;70419;42.700;23.316;2023-09-19T12:12:26;45.20;15.60
80958;DHT22;70419;42.700;23.316;2023-09-19T12:14:53;46.40;15.20
80958;DHT22;70419;42.700;23.316;2023-09-19T12:17:20;47.10;14.40
80958;DHT22;70419;42.700;23.316;2023-09-19T12:19:53;48.40;14.90
80958;DHT22;70419;42.700;23.316;2023-09-19T12:22:19;49.40;13.30
80958;DHT22;70419;42.700;23.316;2023-09-19T12:24:48;50.20;12.70
80958;DHT22;70419;42.700;23.316;2023-09-19T12:27:16;50.10;12.50
80958;DHT22;70419;42.700;23.316;2023-09-19T12:29:49;50.60;12.40
80958;DHT22;70419;42.700;23.316;2023-09-19T12:32:17;51.10;11.80
80958;DHT22;70419;42.700;23.316;2023-09-19T12:34:53;50.10;12.60
80958;DHT22;70419;42.700;23.316;2023-09-19T12:37:20;50.30;12.50
80958;DHT22;70419;42.700;23.316;2023-09-19T12:39:53;50.90;12.30
80958;DHT22;70419;42.700;23.316;2023-09-19T12:42:25;52.00;12.00
80958;DHT22;70419;42.700;23.316;2023-09-19T12:44:58;53.10;11.20
80958;DHT22;70419;42.700;23.316;2023-09-19T12:47:27;53.40;11.20
80958;DHT22;70419;42.700;23.316;2023-09-19T12:50:15;53.60;11.00
80958;DHT22;70419;42.700;23.316;2023-09-19T12:52:52;53.30;11.00
80958;DHT22;70419;42.700;23.316;2023-09-19T12:55:29;53.90;10.80
80958;DHT22;70419;42.700;23.316;2023-09-19T12:57:59;54.70;10.80
80958;DHT22;70419;42.700;23.316;2023-09-19T13:00:40;55.20;10.40
80958;DHT22;70419;42.700;23.316;2023-09-19T13:03:14;55.60;10.10
80958;DHT22;70419;42.700;23.316;2023-09-19T13:05:59;55.90;9.90
80958;DHT22;70419;42.700;23.316;2023-09-19T13:08:39;55.10;10.10
80958;DHT22;70419;42.700;23.316;2023-09-19T13:11:17;54.50;10.60
80958;DHT22;70419;42.700;23.316;2023-09-19T13:17:07;54.70;10.40
80958;DHT22;70419;42.700;23.316;2023-09-19T13:19:55;54.50;10.50
80958;DHT22;70419;42.700;23.316;2023-09-19T13:22:43;54.10;10.10
80958;DHT22;70419;42.700;23.316;2023-09-19T13:25:20;53.90;10.60
80958;DHT22;70419;42.700;23.316;2023-09-19T13:27:47;53.60;10.70
80958;DHT22;70419;42.700;23.316;2023-09-19T13:30:18;52.90;10.90
80958;DHT22;70419;42.700;23.316;2023-09-19T13:32:45;52.00;11.20
80958;DHT22;70419;42.700;23.316;2023-09-19T13:35:14;51.80;11.60
80958;DHT22;70419;42.700;23.316;2023-09-19T13:37:47;51.90;11.50
80958;DHT22;70419;42.700;23.316;2023-09-19T13:40:15;52.10;11.30
80958;DHT22;70419;42.700;23.316;2023-09-19T13:42:42;51.80;11.60
80958;DHT22;70419;42.700;23.316;2023-09-19T13:45:08;51.20;11.80
80958;DHT22;70419;42.700;23.316;2023-09-19T13:47:40;50.80;12.00
80958;DHT22;70419;42.700;23.316;2023-09-19T13:50:06;49.80;12.70
80958;DHT22;70419;42.700;23.316;2023-09-19T13:52:33;49.50;12.70
80958;DHT22;70419;42.700;23.316;2023-09-19T13:54:59;49.40;12.80
80958;DHT22;70419;42.700;23.316;2023-09-19T13:57:26;48.70;13.60
80958;DHT22;70419;42.700;23.316;2023-09-19T13:59:52;47.10;14.10
80958;DHT22;70419;42.700;23.316;2023-09-19T14:02:20;45.10;14.90
80958;DHT22;70419;42.700;23.316;2023-09-19T14:04:51;42.80;16.10
80958;DHT22;70419;42.700;23.316;2023-09-19T14:07:18;41.40;17.20
80958;DHT22;70419;42.700;23.316;2023-09-19T14:09:48;40.50;18.20
80958;DHT22;70419;42.700;23.316;2023-09-19T14:12:13;41.20;18.10
80958;DHT22;70419;42.700;23.316;2023-09-19T14:14:40;42.10;17.10
80958;DHT22;70419;42.700;23.316;2023-09-19T14:17:06;43.40;16.40
80958;DHT22;70419;42.700;23.316;2023-09-19T14:19:33;44.50;15.60
80958;DHT22;70419;42.700;23.316;2023-09-19T14:21:59;45.30;15.30
80958;DHT22;70419;42.700;23.316;2023-09-19T14:24:27;45.50;15.10
80958;DHT22;70419;42.700;23.316;2023-09-19T14:26:54;45.50;15.00
80958;DHT22;70419;42.700;23.316;2023-09-19T14:29:20;45.40;15.10
80958;DHT22;70419;42.700;23.316;2023-09-19T14:31:46;45.50;15.80
80958;DHT22;70419;42.700;23.316;2023-09-19T14:34:11;45.50;15.30
80958;DHT22;70419;42.700;23.316;2023-09-19T14:36:39;45.40;15.10
80958;DHT22;70419;42.700;23.316;2023-09-19T14:39:05;44.70;16.10
80958;DHT22;70419;42.700;23.316;2023-09-19T14:41:31;43.60;15.80
80958;DHT22;70419;42.700;23.316;2023-09-19T14:43:57;42.40;16.60
80958;DHT22;70419;42.700;23.316;2023-09-19T14:46:23;41.50;17.30
80958;DHT22;70419;42.700;23.316;2023-09-19T14:48:52;40.70;18.20
80958;DHT22;70419;42.700;23.316;2023-09-19T14:51:18;40.10;18.40
80958;DHT22;70419;42.700;23.316;2023-09-19T14:53:45;39.50;18.70
80958;DHT22;70419;42.700;23.316;2023-09-19T14:56:11;38.20;20.10
80958;DHT22;70419;42.700;23.316;2023-09-19T14:58:38;36.40;21.70
80958;DHT22;70419;42.700;23.316;2023-09-19T15:01:06;35.20;22.60
80958;DHT22;70419;42.700;23.316;2023-09-19T15:03:33;34.60;23.10
80958;DHT22;70419;42.700;23.316;2023-09-19T15:06:01;34.10;23.80
80958;DHT22;70419;42.700;23.316;2023-09-19T15:08:28;33.30;24.60
80958;DHT22;70419;42.700;23.316;2023-09-19T15:10:54;32.80;25.10
80958;DHT22;70419;42.700;23.316;2023-09-19T15:13:21;32.50;25.30
80958;DHT22;70419;42.700;23.316;2023-09-19T15:15:47;32.20;25.90
80958;DHT22;70419;42.700;23.316;2023-09-19T15:18:17;31.90;26.40
80958;DHT22;70419;42.700;23.316;2023-09-19T15:20:44;31.40;26.80
80958;DHT22;70419;42.700;23.316;2023-09-19T15:23:11;31.10;27.20
80958;DHT22;70419;42.700;23.316;2023-09-19T15:25:38;30.80;27.60
80958;DHT22;70419;42.700;23.316;2023-09-19T15:28:06;30.60;28.00
80958;DHT22;70419;42.700;23.316;2023-09-19T15:30:39;30.20;28.20
80958;DHT22;70419;42.700;23.316;2023-09-19T15:33:05;30.00;28.60
80958;DHT22;70419;42.700;23.316;2023-09-19T15:35:31;29.80;29.00
80958;DHT22;70419;42.700;23.316;2023-09-19T15:37:59;29.40;29.30
80958;DHT22;70419;42.700;23.316;2023-09-19T15:40:26;29.20;30.00
80958;DHT22;70419;42.700;23.316;2023-09-19T15:42:54;29.00;30.10
80958;DHT22;70419;42.700;23.316;2023-09-19T15:45:23;28.90;30.40
80958;DHT22;70419;42.700;23.316;2023-09-19T15:47:51;28.90;30.40
80958;DHT22;70419;42.700;23.316;2023-09-19T15:50:17;28.80;30.50
80958;DHT22;70419;42.700;23.316;2023-09-19T15:52:43;28.70;30.90
80958;DHT22;70419;42.700;23.316;2023-09-19T15:55:10;28.40;30.90
80958;DHT22;70419;42.700;23.316;2023-09-19T15:57:38;28.30;32.00
80958;DHT22;70419;42.700;23.316;2023-09-19T16:00:06;28.20;32.00
80958;DHT22;70419;42.700;23.316;2023-09-19T16:02:40;28.10;32.30
80958;DHT22;70419;42.700;23.316;2023-09-19T16:05:06;28.00;32.10
80958;DHT22;70419;42.700;23.316;2023-09-19T16:07:33;27.90;32.50
80958;DHT22;70419;42.700;23.316;2023-09-19T16:10:02;27.60;32.90
80958;DHT22;70419;42.700;23.316;2023-09-19T16:12:30;27.50;33.00
80958;DHT22;70419;42.700;23.316;2023-09-19T16:14:57;27.40;33.10
80958;DHT22;70419;42.700;23.316;2023-09-19T16:17:41;27.30;33.40
80958;DHT22;70419;42.700;23.316;2023-09-19T16:20:07;27.40;34.50